createdAt,value
2022-08-23T00:00:49.833Z,53.65
2022-08-23T00:03:17.313Z,53.35
2022-08-23T00:05:44.102Z,53.64
2022-08-23T00:08:10.731Z,53.64
2022-08-23T00:10:37.298Z,53.67
2022-08-23T00:13:03.915Z,53.50
2022-08-23T00:15:30.500Z,53.64
2022-08-23T00:17:57.996Z,53.67
2022-08-23T00:20:24.994Z,53.67
2022-08-23T00:22:51.625Z,53.64
2022-08-23T00:25:18.260Z,53.63
2022-08-23T00:27:44.920Z,53.59
2022-08-23T00:30:12.402Z,53.54
2022-08-23T00:32:39.119Z,53.58
2022-08-23T00:35:06.100Z,53.60
2022-08-23T00:37:32.729Z,53.56
2022-08-23T00:39:59.980Z,53.53
2022-08-23T00:42:57.699Z,53.59
2022-08-23T00:45:51.837Z,53.56
2022-08-23T00:48:18.438Z,53.53
2022-08-23T00:51:06.953Z,53.52
2022-08-23T00:53:38.033Z,53.52
2022-08-23T00:56:06.969Z,53.47
2022-08-23T00:58:33.577Z,53.44
2022-08-23T01:01:01.061Z,53.44
2022-08-23T01:03:28.991Z,53.46
2022-08-23T01:06:23.572Z,53.46
2022-08-23T01:08:53.695Z,53.47
2022-08-23T01:11:24.336Z,53.43
2022-08-23T01:13:54.639Z,53.46
2022-08-23T01:16:39.876Z,53.40
2022-08-23T01:19:12.291Z,53.44
2022-08-23T01:22:09.388Z,53.42
2022-08-23T01:25:06.264Z,53.34
2022-08-23T01:27:22.881Z,53.42
2022-08-23T01:29:49.475Z,53.44
2022-08-23T01:32:19.748Z,53.42
2022-08-23T01:34:51.920Z,53.42
2022-08-23T01:37:18.679Z,53.45
2022-08-23T01:39:45.347Z,53.44
2022-08-23T01:42:12.452Z,53.45
2022-08-23T01:44:39.162Z,53.50
2022-08-23T01:47:06.609Z,53.43
2022-08-23T01:49:34.563Z,53.46
2022-08-23T01:52:01.136Z,53.46
2022-08-23T01:54:27.789Z,53.41
2022-08-23T01:56:54.425Z,53.46
2022-08-23T01:59:20.998Z,53.44
2022-08-23T02:01:47.796Z,53.45
2022-08-23T02:04:14.453Z,53.46
2022-08-23T02:06:41.077Z,53.46
2022-08-23T02:09:17.685Z,53.45
2022-08-23T02:11:45.095Z,53.46
2022-08-23T02:14:18.404Z,53.41
2022-08-23T02:17:03.726Z,53.52
2022-08-23T02:19:36.243Z,53.46
2022-08-23T02:22:03.422Z,53.25
2022-08-23T02:24:31.337Z,53.39
2022-08-23T02:26:59.845Z,53.38
2022-08-23T02:29:29.859Z,53.39
2022-08-23T02:31:57.992Z,53.39
2022-08-23T02:34:26.119Z,53.39
2022-08-23T02:36:54.720Z,53.38
2022-08-23T02:39:21.317Z,53.32
2022-08-23T02:41:47.928Z,53.27
2022-08-23T02:44:14.505Z,53.39
2022-08-23T02:46:41.148Z,53.38
2022-08-23T02:49:07.865Z,53.38
2022-08-23T02:51:34.496Z,53.44
2022-08-23T02:54:01.442Z,53.31
2022-08-23T02:56:27.989Z,53.35
2022-08-23T02:58:54.998Z,53.36
2022-08-23T03:01:27.553Z,53.36
2022-08-23T03:03:54.350Z,53.32
2022-08-23T03:06:25.876Z,53.28
2022-08-23T03:08:54.072Z,53.39
2022-08-23T03:11:21.911Z,53.34
2022-08-23T03:13:49.134Z,53.40
2022-08-23T03:16:16.034Z,53.43
2022-08-23T03:18:42.778Z,53.42
2022-08-23T03:21:09.833Z,53.40
2022-08-23T03:23:36.697Z,53.43
2022-08-23T03:26:04.366Z,53.46
2022-08-23T03:28:30.986Z,53.51
2022-08-23T03:30:57.597Z,53.54
2022-08-23T03:33:24.171Z,53.50
2022-08-23T03:35:50.840Z,53.51
2022-08-23T03:38:17.595Z,53.58
2022-08-23T03:40:44.213Z,53.54
2022-08-23T03:43:11.215Z,53.55
2022-08-23T03:45:37.868Z,53.55
2022-08-23T03:48:04.751Z,53.57
2022-08-23T03:50:31.346Z,53.55
2022-08-23T03:52:57.972Z,53.52
2022-08-23T03:55:24.536Z,53.56
2022-08-23T03:57:51.171Z,53.62
2022-08-23T04:00:20.440Z,53.58
2022-08-23T04:02:47.311Z,53.52
2022-08-23T04:05:13.889Z,53.61
2022-08-23T04:07:40.472Z,53.58
2022-08-23T04:10:08.030Z,53.56
2022-08-23T04:12:34.624Z,53.58
2022-08-23T04:15:02.641Z,53.60
2022-08-23T04:17:32.431Z,53.50
2022-08-23T04:19:59.395Z,53.58
2022-08-23T04:22:25.958Z,53.57
2022-08-23T04:24:52.547Z,53.53
2022-08-23T04:27:19.131Z,53.55
2022-08-23T04:29:45.713Z,53.55
2022-08-23T04:32:12.536Z,53.47
2022-08-23T04:34:45.315Z,53.59
2022-08-23T04:37:12.678Z,53.56
2022-08-23T04:39:57.806Z,53.57
2022-08-23T04:42:24.848Z,53.35
2022-08-23T04:44:51.443Z,53.49
2022-08-23T04:47:18.083Z,53.53
2022-08-23T04:49:44.651Z,53.42
2022-08-23T04:52:11.359Z,53.51
2022-08-23T04:54:37.961Z,53.61
2022-08-23T04:57:04.572Z,53.59
2022-08-23T04:59:31.154Z,53.61
2022-08-23T05:01:58.043Z,53.58
2022-08-23T05:04:24.599Z,53.54
2022-08-23T05:06:52.217Z,53.58
2022-08-23T05:09:20.810Z,53.50
2022-08-23T05:11:47.660Z,53.27
2022-08-23T05:14:14.341Z,53.44
2022-08-23T05:16:42.962Z,53.20
2022-08-23T05:19:09.542Z,53.07
2022-08-23T05:21:36.132Z,53.08
2022-08-23T05:24:03.811Z,53.14
2022-08-23T05:26:30.520Z,55.03
2022-08-23T05:28:57.123Z,56.29
2022-08-23T05:31:25.518Z,56.78
2022-08-23T05:33:52.320Z,57.21
2022-08-23T05:36:19.324Z,57.46
2022-08-23T05:38:47.110Z,58.59
2022-08-23T05:41:14.552Z,58.58
2022-08-23T05:43:41.130Z,59.00
2022-08-23T05:46:19.949Z,59.45
2022-08-23T05:48:48.474Z,59.47
2022-08-23T05:51:26.079Z,59.55
2022-08-23T05:53:53.232Z,60.07
2022-08-23T05:56:23.400Z,60.15
2022-08-23T05:58:51.471Z,60.12
2022-08-23T06:01:18.299Z,60.19
2022-08-23T06:03:45.011Z,60.45
2022-08-23T06:06:12.984Z,60.21
2022-08-23T06:08:40.191Z,60.56
2022-08-23T06:11:14.860Z,60.80
2022-08-23T06:13:43.768Z,60.92
2022-08-23T06:16:14.918Z,60.89
2022-08-23T06:18:42.360Z,61.13
2022-08-23T06:21:10.660Z,61.31
2022-08-23T06:23:37.316Z,61.30
2022-08-23T06:26:11.730Z,61.39
2022-08-23T06:28:40.332Z,61.19
2022-08-23T06:31:37.643Z,61.06
2022-08-23T06:34:04.525Z,61.19
2022-08-23T06:36:31.131Z,61.42
2022-08-23T06:38:57.739Z,61.27
2022-08-23T06:41:24.432Z,61.35
2022-08-23T06:43:51.214Z,61.25
2022-08-23T06:46:20.764Z,61.65
2022-08-23T06:48:50.197Z,61.59
2022-08-23T06:51:29.153Z,61.59
2022-08-23T06:53:56.818Z,61.66
2022-08-23T06:56:24.357Z,61.72
2022-08-23T06:58:51.416Z,61.49
2022-08-23T07:01:47.105Z,61.28
2022-08-23T07:04:16.534Z,61.41
2022-08-23T07:06:43.187Z,61.32
2022-08-23T07:09:09.805Z,61.45
2022-08-23T07:11:36.773Z,61.16
2022-08-23T07:14:05.160Z,61.05
2022-08-23T07:16:35.929Z,60.89
2022-08-23T07:19:02.765Z,60.71
2022-08-23T07:21:29.439Z,60.56
2022-08-23T07:23:56.090Z,60.53
2022-08-23T07:26:23.132Z,60.26
2022-08-23T07:28:50.157Z,60.14
2022-08-23T07:31:27.260Z,60.25
2022-08-23T07:33:54.815Z,60.09
2022-08-23T07:36:26.340Z,59.71
2022-08-23T07:38:53.359Z,59.65
2022-08-23T07:41:20.464Z,59.74
2022-08-23T07:43:47.062Z,59.65
2022-08-23T07:46:14.668Z,59.79
2022-08-23T07:48:53.957Z,59.73
2022-08-23T07:51:21.350Z,59.84
2022-08-23T07:53:48.232Z,59.34
2022-08-23T07:56:15.676Z,59.25
2022-08-23T07:58:42.380Z,59.16
2022-08-23T08:01:24.996Z,58.73
2022-08-23T08:03:54.080Z,58.74
2022-08-23T08:06:23.005Z,58.67
2022-08-23T08:08:49.684Z,58.57
2022-08-23T08:11:18.205Z,58.15
2022-08-23T08:13:45.330Z,58.00
2022-08-23T08:16:20.701Z,57.38
2022-08-23T08:18:47.364Z,57.45
2022-08-23T08:21:17.063Z,57.31
2022-08-23T08:23:43.941Z,56.96
2022-08-23T08:26:11.378Z,56.85
2022-08-23T08:28:37.970Z,56.88
2022-08-23T08:31:05.048Z,56.70
2022-08-23T08:33:34.382Z,56.36
2022-08-23T08:36:02.687Z,56.32
2022-08-23T08:38:31.642Z,56.07
2022-08-23T08:41:16.089Z,56.06
2022-08-23T08:44:08.101Z,55.88
2022-08-23T08:46:45.853Z,55.62
2022-08-23T08:49:24.226Z,55.69
2022-08-23T08:51:57.239Z,56.02
2022-08-23T08:54:25.247Z,55.92
2022-08-23T08:56:53.559Z,55.77
2022-08-23T08:59:22.367Z,56.10
2022-08-23T09:01:49.145Z,55.85
2022-08-23T09:04:15.806Z,55.74
2022-08-23T09:06:49.929Z,55.79
2022-08-23T09:09:26.852Z,55.70
2022-08-23T09:12:08.670Z,55.58
2022-08-23T09:15:12.344Z,55.45
2022-08-23T09:17:45.129Z,55.54
2022-08-23T09:20:14.129Z,55.23
2022-08-23T09:22:43.472Z,55.49
2022-08-23T09:25:11.255Z,55.21
2022-08-23T09:27:41.327Z,55.28
2022-08-23T09:30:09.165Z,55.23
2022-08-23T09:32:40.287Z,55.07
2022-08-23T09:35:09.602Z,54.84
2022-08-23T09:38:20.229Z,54.79
2022-08-23T09:40:48.799Z,54.50
2022-08-23T09:43:17.649Z,54.34
2022-08-23T09:45:50.294Z,54.13
2022-08-23T09:50:39.949Z,52.16
2022-08-23T09:53:09.143Z,52.16
2022-08-23T09:55:57.287Z,53.12
2022-08-23T09:58:32.258Z,53.50
2022-08-23T10:01:36.735Z,53.44
2022-08-23T10:04:16.749Z,53.13
2022-08-23T10:06:45.528Z,52.97
2022-08-23T10:09:30.087Z,53.00
2022-08-23T10:11:57.773Z,52.99
2022-08-23T10:14:30.744Z,52.50
2022-08-23T10:17:34.211Z,52.34
2022-08-23T10:20:10.172Z,52.41
2022-08-23T10:22:44.531Z,52.28
2022-08-23T10:25:18.724Z,52.18
2022-08-23T10:28:16.048Z,52.24
2022-08-23T10:31:00.484Z,52.38
2022-08-23T10:33:33.303Z,51.97
2022-08-23T10:36:09.130Z,51.75
2022-08-23T10:38:58.187Z,51.86
2022-08-23T10:41:34.221Z,51.93
2022-08-23T10:44:06.751Z,52.13
2022-08-23T10:46:38.223Z,52.07
2022-08-23T10:49:04.884Z,52.02
2022-08-23T10:51:35.104Z,51.95
2022-08-23T10:54:09.990Z,51.82
2022-08-23T10:56:38.035Z,51.86
2022-08-23T10:59:26.626Z,51.91
2022-08-23T11:01:53.443Z,51.39
2022-08-23T11:04:41.673Z,48.08
2022-08-23T11:07:18.483Z,47.86
2022-08-23T11:09:58.301Z,46.92
2022-08-23T11:12:28.400Z,46.39
2022-08-23T11:15:12.838Z,45.87
2022-08-23T11:17:57.716Z,46.10
2022-08-23T11:20:49.230Z,46.82
2022-08-23T11:23:42.850Z,47.35
2022-08-23T11:26:14.470Z,47.46
2022-08-23T11:28:45.226Z,47.43
2022-08-23T11:31:11.811Z,47.64
2022-08-23T11:34:29.524Z,47.64
2022-08-23T11:37:18.412Z,47.70
2022-08-23T11:40:00.444Z,48.10
2022-08-23T11:42:37.399Z,47.81
2022-08-23T11:45:25.084Z,47.56
2022-08-23T11:48:12.500Z,47.65
2022-08-23T11:50:51.894Z,47.47
2022-08-23T11:53:45.454Z,47.36
2022-08-23T11:56:24.033Z,47.30
2022-08-23T11:59:12.545Z,47.25
2022-08-23T12:01:39.609Z,47.19
2022-08-23T12:04:38.284Z,47.21
2022-08-23T12:07:12.448Z,46.67
2022-08-23T12:09:44.305Z,46.76
2022-08-23T12:12:14.135Z,46.69
2022-08-23T12:14:41.324Z,46.85
2022-08-23T12:17:20.904Z,47.06
2022-08-23T12:19:58.547Z,46.44
2022-08-23T12:22:30.221Z,46.64
2022-08-23T12:24:59.636Z,46.83
2022-08-23T12:27:52.788Z,46.72
2022-08-23T12:30:20.724Z,47.02
2022-08-23T12:33:28.973Z,46.54
2022-08-23T12:36:18.626Z,46.50
2022-08-23T12:39:15.823Z,46.62
2022-08-23T12:41:55.616Z,46.66
2022-08-23T12:44:24.334Z,46.44
2022-08-23T12:46:51.418Z,46.25
2022-08-23T12:49:32.593Z,46.26
2022-08-23T12:52:02.416Z,46.52
2022-08-23T12:54:37.973Z,46.50
2022-08-23T12:57:11.886Z,46.56
2022-08-23T13:00:16.661Z,46.45
2022-08-23T13:02:58.646Z,46.33
2022-08-23T13:05:40.994Z,46.38
2022-08-23T13:08:19.602Z,46.10
2022-08-23T13:10:54.018Z,46.44
2022-08-23T13:13:22.744Z,46.30
2022-08-23T13:15:54.545Z,46.37
2022-08-23T13:18:25.188Z,46.57
2022-08-23T13:21:22.584Z,46.65
2022-08-23T13:23:53.617Z,47.15
2022-08-23T13:26:36.939Z,46.98
2022-08-23T13:29:09.225Z,47.30
2022-08-23T13:31:56.386Z,47.61
2022-08-23T13:34:36.589Z,47.79
2022-08-23T13:37:28.270Z,48.08
2022-08-23T13:39:56.952Z,48.10
2022-08-23T13:42:34.664Z,48.24
2022-08-23T13:45:20.724Z,48.34
2022-08-23T13:47:48.631Z,48.20
2022-08-23T13:50:17.369Z,48.19
2022-08-23T13:53:11.448Z,48.22
2022-08-23T13:55:31.013Z,48.27
2022-08-23T13:57:57.757Z,48.42
2022-08-23T14:00:25.311Z,48.48
2022-08-23T14:02:52.294Z,48.59
2022-08-23T14:05:21.472Z,48.76
2022-08-23T14:10:15.383Z,48.92
2022-08-23T14:12:43.792Z,48.97
2022-08-23T14:15:10.651Z,49.18
2022-08-23T14:17:42.329Z,49.11
2022-08-23T14:22:56.161Z,49.25
2022-08-23T14:25:22.737Z,49.34
2022-08-23T14:27:49.583Z,49.37
2022-08-23T14:30:32.496Z,49.46
2022-08-23T14:32:59.600Z,49.43
2022-08-23T14:35:26.312Z,49.45
2022-08-23T14:38:08.341Z,49.48
2022-08-23T14:40:35.327Z,49.51
2022-08-23T14:43:02.093Z,49.57
2022-08-23T14:45:28.979Z,49.66
2022-08-23T14:47:55.597Z,49.81
2022-08-23T14:50:22.236Z,49.77
2022-08-23T14:52:48.851Z,49.82
2022-08-23T14:55:15.541Z,49.91
2022-08-23T14:57:42.157Z,49.96
2022-08-23T15:00:13.702Z,49.99
2022-08-23T15:02:43.710Z,49.97
2022-08-23T15:05:12.028Z,49.96
2022-08-23T15:07:38.637Z,49.93
2022-08-23T15:10:05.744Z,50.01
2022-08-23T15:15:21.988Z,50.14
2022-08-23T15:18:02.361Z,50.13
2022-08-23T15:20:31.314Z,50.13
2022-08-23T15:22:58.044Z,50.16
2022-08-23T15:25:25.873Z,50.17
2022-08-23T15:27:52.517Z,50.19
2022-08-23T15:30:19.129Z,50.19
2022-08-23T15:32:52.290Z,50.14
2022-08-23T15:35:27.027Z,50.18
2022-08-23T15:37:55.983Z,50.21
2022-08-23T15:40:22.973Z,50.16
2022-08-23T15:42:49.596Z,50.12
2022-08-23T15:45:16.187Z,50.14
2022-08-23T15:47:46.712Z,50.20
2022-08-23T15:50:13.322Z,50.16
2022-08-23T15:52:39.937Z,50.19
2022-08-23T15:55:06.918Z,50.16
2022-08-23T15:57:40.944Z,50.15
2022-08-23T16:00:08.222Z,50.14
2022-08-23T16:02:57.259Z,50.11
2022-08-23T16:05:21.403Z,50.12
2022-08-23T16:07:49.522Z,50.10
2022-08-23T16:10:16.103Z,50.09
2022-08-23T16:12:42.678Z,50.09
2022-08-23T16:15:09.590Z,50.11
2022-08-23T16:17:36.554Z,50.12
2022-08-23T16:20:03.959Z,50.07
2022-08-23T16:22:31.052Z,50.08
2022-08-23T16:24:57.647Z,50.21
2022-08-23T16:27:24.214Z,50.15
2022-08-23T16:29:50.893Z,50.20
2022-08-23T16:32:17.599Z,50.26
2022-08-23T16:34:44.521Z,50.25
2022-08-23T16:37:11.203Z,50.30
2022-08-23T16:39:37.874Z,50.33
2022-08-23T16:42:05.150Z,50.33
2022-08-23T16:44:32.734Z,50.40
2022-08-23T16:46:59.775Z,50.46
2022-08-23T16:49:26.356Z,50.46
2022-08-23T16:51:53.013Z,50.49
2022-08-23T16:54:19.685Z,50.50
2022-08-23T16:56:46.302Z,50.52
2022-08-23T16:59:12.927Z,50.57
2022-08-23T17:01:46.526Z,50.59
2022-08-23T17:04:13.115Z,50.65
2022-08-23T17:06:39.986Z,50.62
2022-08-23T17:09:06.679Z,50.68
2022-08-23T17:11:33.266Z,50.72
2022-08-23T17:14:05.302Z,50.77
2022-08-23T17:16:32.519Z,50.75
2022-08-23T17:18:59.151Z,50.77
2022-08-23T17:21:25.745Z,50.81
2022-08-23T17:23:52.356Z,50.88
2022-08-23T17:26:19.434Z,50.88
2022-08-23T17:28:46.749Z,50.88
2022-08-23T17:31:13.481Z,50.91
2022-08-23T17:33:40.344Z,50.93
2022-08-23T17:36:07.381Z,50.97
2022-08-23T17:38:34.416Z,50.97
2022-08-23T17:41:01.043Z,51.01
2022-08-23T17:43:28.517Z,51.04
2022-08-23T17:45:55.198Z,51.07
2022-08-23T17:48:24.707Z,51.09
2022-08-23T17:50:53.874Z,51.07
2022-08-23T17:53:20.494Z,51.13
2022-08-23T17:55:47.094Z,51.13
2022-08-23T17:58:14.256Z,51.16
2022-08-23T18:00:41.078Z,51.19
2022-08-23T18:03:07.776Z,51.18
2022-08-23T18:05:34.861Z,51.20
2022-08-23T18:08:01.512Z,51.24
2022-08-23T18:10:29.824Z,51.25
2022-08-23T18:12:57.208Z,51.27
2022-08-23T18:15:23.943Z,51.27
2022-08-23T18:17:52.223Z,51.31
2022-08-23T18:20:23.195Z,51.29
2022-08-23T18:22:49.798Z,51.29
2022-08-23T18:25:17.093Z,51.25
2022-08-23T18:28:03.002Z,51.34
2022-08-23T18:30:29.592Z,51.38
2022-08-23T18:32:56.293Z,51.33
2022-08-23T18:35:25.829Z,51.36
2022-08-23T18:37:53.147Z,51.32
2022-08-23T18:40:19.927Z,51.34
2022-08-23T18:42:46.617Z,51.37
2022-08-23T18:45:14.036Z,51.37
2022-08-23T18:47:40.688Z,51.44
2022-08-23T18:50:07.801Z,51.44
2022-08-23T18:52:34.428Z,51.42
2022-08-23T18:55:00.991Z,51.39
2022-08-23T18:57:27.568Z,51.44
2022-08-23T18:59:54.253Z,51.43
2022-08-23T19:02:21.700Z,51.43
2022-08-23T19:04:48.401Z,51.45
2022-08-23T19:07:14.989Z,51.38
2022-08-23T19:09:41.563Z,51.45
2022-08-23T19:12:08.454Z,51.44
2022-08-23T19:14:35.796Z,51.43
2022-08-23T19:17:05.584Z,51.45
2022-08-23T19:19:33.709Z,51.49
2022-08-23T19:22:00.354Z,51.44
2022-08-23T19:24:27.611Z,51.46
2022-08-23T19:26:54.447Z,51.43
2022-08-23T19:29:21.693Z,51.42
2022-08-23T19:31:49.115Z,51.48
2022-08-23T19:34:17.339Z,51.51
2022-08-23T19:36:46.961Z,51.43
2022-08-23T19:39:14.139Z,51.42
2022-08-23T19:41:42.035Z,51.42
2022-08-23T19:44:08.628Z,51.46
2022-08-23T19:46:36.512Z,51.46
2022-08-23T19:49:03.165Z,51.49
2022-08-23T19:51:33.760Z,51.45
2022-08-23T19:54:11.636Z,51.47
2022-08-23T19:56:43.492Z,51.45
2022-08-23T19:59:16.203Z,51.48
2022-08-23T20:01:42.849Z,51.47
2022-08-23T20:04:09.500Z,51.54
2022-08-23T20:06:36.075Z,51.52
2022-08-23T20:09:02.928Z,51.52
2022-08-23T20:11:31.897Z,51.49
2022-08-23T20:14:00.146Z,51.49
2022-08-23T20:16:27.264Z,51.53
2022-08-23T20:18:55.264Z,51.52
2022-08-23T20:21:23.896Z,51.51
2022-08-23T20:24:01.006Z,51.54
2022-08-23T20:26:33.262Z,51.51
2022-08-23T20:29:03.477Z,51.54
2022-08-23T20:31:33.145Z,51.50
2022-08-23T20:33:59.925Z,51.54
2022-08-23T20:36:28.160Z,51.51
2022-08-23T20:38:58.298Z,51.55
2022-08-23T20:41:28.944Z,51.55
2022-08-23T20:43:55.551Z,51.53
2022-08-23T20:46:22.222Z,51.53
2022-08-23T20:48:49.368Z,51.53
2022-08-23T20:51:15.955Z,51.53
2022-08-23T20:53:42.795Z,51.54
2022-08-23T20:56:09.980Z,51.53
2022-08-23T20:58:36.549Z,51.56
2022-08-23T21:01:03.978Z,51.54
2022-08-23T21:03:36.403Z,51.56
2022-08-23T21:06:05.162Z,51.54
2022-08-23T21:08:32.141Z,51.52
2022-08-23T21:11:01.767Z,51.54
2022-08-23T21:13:28.462Z,51.56
2022-08-23T21:15:55.128Z,51.56
2022-08-23T21:18:21.775Z,51.56
2022-08-23T21:20:48.431Z,51.53
2022-08-23T21:23:15.090Z,51.53
2022-08-23T21:25:41.727Z,51.56
2022-08-23T21:28:08.556Z,51.53
2022-08-23T21:30:36.362Z,51.56
2022-08-23T21:33:03.473Z,51.57
2022-08-23T21:35:30.263Z,51.57
2022-08-23T21:37:56.842Z,51.56
2022-08-23T21:40:23.583Z,51.57
2022-08-23T21:42:50.198Z,51.58
2022-08-23T21:45:16.762Z,51.57
2022-08-23T21:47:43.338Z,51.57
2022-08-23T21:50:10.284Z,51.58
2022-08-23T21:52:36.929Z,51.58
2022-08-23T21:55:03.719Z,51.58
2022-08-23T21:57:30.329Z,51.61
2022-08-23T21:59:57.073Z,51.59
2022-08-23T22:02:23.702Z,51.57
2022-08-23T22:04:50.444Z,51.61
2022-08-23T22:07:17.024Z,51.60
2022-08-23T22:09:43.615Z,51.63
2022-08-23T22:12:10.192Z,51.65
2022-08-23T22:14:36.915Z,51.65
2022-08-23T22:17:04.575Z,51.66
2022-08-23T22:19:31.175Z,51.63
2022-08-23T22:21:58.064Z,51.62
2022-08-23T22:24:26.132Z,51.63
2022-08-23T22:26:53.341Z,51.62
2022-08-23T22:29:19.940Z,51.62
2022-08-23T22:31:47.795Z,51.65
2022-08-23T22:34:14.595Z,51.67
2022-08-23T22:36:41.879Z,51.66
2022-08-23T22:39:08.489Z,51.65
2022-08-23T22:41:35.124Z,51.66
2022-08-23T22:44:02.227Z,51.67
2022-08-23T22:46:30.390Z,51.64
2022-08-23T22:48:57.013Z,51.66
2022-08-23T22:51:27.405Z,51.65
2022-08-23T22:53:56.146Z,51.64
2022-08-23T22:56:28.168Z,51.65
2022-08-23T22:58:54.756Z,51.64
2022-08-23T23:01:23.606Z,51.68
2022-08-23T23:03:51.431Z,51.65
2022-08-23T23:06:18.937Z,51.63
2022-08-23T23:08:45.528Z,51.69
2022-08-23T23:11:12.808Z,51.65
2022-08-23T23:13:39.450Z,51.64
2022-08-23T23:16:07.785Z,51.63
2022-08-23T23:18:34.492Z,51.65
2022-08-23T23:21:02.233Z,51.65
2022-08-23T23:23:29.254Z,51.67
2022-08-23T23:25:55.821Z,51.62
2022-08-23T23:28:22.762Z,51.64
2022-08-23T23:30:51.174Z,51.62
2022-08-23T23:33:18.487Z,51.64
2022-08-23T23:35:45.380Z,51.65
2022-08-23T23:38:12.609Z,51.65
2022-08-23T23:40:39.554Z,51.63
2022-08-23T23:43:06.277Z,51.65
2022-08-23T23:45:36.546Z,51.68
2022-08-23T23:48:03.456Z,51.69
2022-08-23T23:50:35.211Z,51.70
2022-08-23T23:53:01.792Z,51.69
2022-08-23T23:55:28.372Z,51.67
2022-08-23T23:57:55.959Z,51.70
